createdAt,value
2024-03-05T00:00:12.153Z,94152.88
2024-03-05T00:02:41.477Z,94146.69
2024-03-05T00:05:10.038Z,94151.69
2024-03-05T00:07:37.429Z,94144.09
2024-03-05T00:10:04.927Z,94140.63
2024-03-05T00:12:33.095Z,94139.25
2024-03-05T00:15:01.361Z,94133.63
2024-03-05T00:17:29.852Z,94139.75
2024-03-05T00:19:57.773Z,94133.59
2024-03-05T00:22:25.879Z,94126.47
2024-03-05T00:24:53.286Z,94119.78
2024-03-05T00:27:20.509Z,94116.66
2024-03-05T00:29:49.062Z,94123.56
2024-03-05T00:32:17.209Z,94124.13
2024-03-05T00:34:44.914Z,94115.63
2024-03-05T00:37:12.267Z,94122.56
2024-03-05T00:39:39.589Z,94122.00
2024-03-05T00:42:06.950Z,94121.69
2024-03-05T00:44:34.099Z,94121.88
2024-03-05T00:47:01.357Z,94113.03
2024-03-05T00:49:30.344Z,94103.81
2024-03-05T00:51:57.412Z,94098.44
2024-03-05T00:54:24.848Z,94101.94
2024-03-05T00:56:52.740Z,94098.06
2024-03-05T00:59:20.007Z,94091.56
2024-03-05T01:01:47.316Z,94090.03
2024-03-05T01:04:15.894Z,94101.84
2024-03-05T01:06:46.196Z,94092.81
2024-03-05T01:09:17.994Z,94080.22
2024-03-05T01:11:45.379Z,94075.69
2024-03-05T01:14:12.718Z,94075.25
2024-03-05T01:16:40.070Z,94086.31
2024-03-05T01:19:08.371Z,94072.22
2024-03-05T01:21:35.760Z,94075.44
2024-03-05T01:24:02.930Z,94075.19
2024-03-05T01:26:30.269Z,94074.00
2024-03-05T01:28:57.873Z,94069.81
2024-03-05T01:31:25.206Z,94065.78
2024-03-05T01:33:52.351Z,94074.88
2024-03-05T01:36:21.204Z,94070.31
2024-03-05T01:38:48.761Z,94070.00
2024-03-05T01:41:16.345Z,94067.09
2024-03-05T01:43:44.213Z,94061.03
2024-03-05T01:46:11.959Z,94054.16
2024-03-05T01:48:39.434Z,94048.91
2024-03-05T01:51:06.683Z,94046.44
2024-03-05T01:53:34.512Z,94034.84
2024-03-05T01:56:01.574Z,94039.41
2024-03-05T01:58:29.162Z,94047.22
2024-03-05T02:00:58.679Z,94039.94
2024-03-05T02:03:26.487Z,94045.00
2024-03-05T02:06:13.759Z,94049.03
2024-03-05T02:08:41.260Z,94038.94
2024-03-05T02:11:09.498Z,94037.91
2024-03-05T02:13:39.688Z,94041.59
2024-03-05T02:16:07.262Z,94043.53
2024-03-05T02:18:34.584Z,94044.59
2024-03-05T02:21:07.045Z,94048.59
2024-03-05T02:23:34.411Z,94049.03
2024-03-05T02:26:02.054Z,94049.34
2024-03-05T02:28:29.556Z,94039.50
2024-03-05T02:30:56.978Z,94024.78
2024-03-05T02:33:24.332Z,94040.81
2024-03-05T02:35:58.646Z,94045.81
2024-03-05T02:38:26.812Z,94041.91
2024-03-05T02:40:54.873Z,94051.22
2024-03-05T02:43:22.279Z,94056.16
2024-03-05T02:45:50.086Z,94050.63
2024-03-05T02:48:18.011Z,94049.84
2024-03-05T02:50:45.646Z,94045.31
2024-03-05T02:53:13.069Z,94040.00
2024-03-05T02:55:41.319Z,94042.91
2024-03-05T02:58:08.907Z,94043.97
2024-03-05T03:00:36.153Z,94048.44
2024-03-05T03:03:04.144Z,94051.91
2024-03-05T03:05:32.533Z,94061.56
2024-03-05T03:07:59.694Z,94055.19
2024-03-05T03:10:26.958Z,94060.00
2024-03-05T03:12:54.453Z,94059.97
2024-03-05T03:15:22.088Z,94051.38
2024-03-05T03:17:49.691Z,94048.78
2024-03-05T03:20:17.565Z,94050.38
2024-03-05T03:22:45.310Z,94050.09
2024-03-05T03:25:14.303Z,94039.50
2024-03-05T03:27:41.948Z,94046.31
2024-03-05T03:30:10.967Z,94036.59
2024-03-05T03:32:38.569Z,94048.09
2024-03-05T03:35:07.887Z,94011.50
2024-03-05T03:37:36.046Z,94042.19
2024-03-05T03:40:06.236Z,94046.56
2024-03-05T03:42:33.849Z,94034.28
2024-03-05T03:45:01.230Z,94039.41
2024-03-05T03:47:29.959Z,94038.56
2024-03-05T03:49:57.176Z,94031.53
2024-03-05T03:52:24.389Z,94037.66
2024-03-05T03:54:51.633Z,94038.00
2024-03-05T03:57:18.914Z,94038.75
2024-03-05T03:59:46.155Z,94038.69
2024-03-05T04:02:13.333Z,94048.53
2024-03-05T04:04:40.634Z,94031.28
2024-03-05T04:07:07.874Z,94031.41
2024-03-05T04:09:35.376Z,94028.72
2024-03-05T04:12:02.631Z,94027.94
2024-03-05T04:14:30.157Z,94026.06
2024-03-05T04:16:57.650Z,94025.56
2024-03-05T04:19:25.076Z,93998.53
2024-03-05T04:21:52.329Z,94018.09
2024-03-05T04:24:19.668Z,94033.16
2024-03-05T04:26:49.728Z,94026.03
2024-03-05T04:29:21.097Z,94035.38
2024-03-05T04:32:06.680Z,94022.25
2024-03-05T04:34:36.775Z,94032.69
2024-03-05T04:37:09.986Z,94027.38
2024-03-05T04:39:38.093Z,94030.03
2024-03-05T04:42:05.786Z,94037.03
2024-03-05T04:44:35.262Z,94025.88
2024-03-05T04:47:05.393Z,94040.50
2024-03-05T04:49:32.779Z,94045.78
2024-03-05T04:52:00.032Z,94036.88
2024-03-05T04:54:27.318Z,94034.28
2024-03-05T04:56:55.131Z,94037.50
2024-03-05T04:59:22.700Z,94035.88
2024-03-05T05:01:50.171Z,94038.16
2024-03-05T05:04:17.680Z,94034.97
2024-03-05T05:06:44.832Z,94032.59
2024-03-05T05:09:12.218Z,94026.94
2024-03-05T05:11:39.482Z,94022.16
2024-03-05T05:14:07.104Z,94033.59
2024-03-05T05:16:34.474Z,94025.72
2024-03-05T05:19:06.126Z,94030.19
2024-03-05T05:21:34.395Z,94025.69
2024-03-05T05:24:01.615Z,94033.66
2024-03-05T05:26:28.979Z,94031.38
2024-03-05T05:28:57.135Z,94040.09
2024-03-05T05:31:30.668Z,94040.75
2024-03-05T05:33:58.308Z,94042.41
2024-03-05T05:36:25.643Z,94036.16
2024-03-05T05:38:52.876Z,94042.44
2024-03-05T05:41:20.382Z,94039.06
2024-03-05T05:43:47.723Z,94043.03
2024-03-05T05:46:23.460Z,94039.41
2024-03-05T05:48:51.388Z,94048.19
2024-03-05T05:51:19.665Z,94051.06
2024-03-05T05:53:47.237Z,94055.03
2024-03-05T05:56:17.142Z,94047.44
2024-03-05T05:58:46.320Z,94063.75
2024-03-05T06:01:15.228Z,94054.47
2024-03-05T06:03:48.955Z,94055.28
2024-03-05T06:06:21.384Z,94049.41
2024-03-05T06:08:48.959Z,94053.47
2024-03-05T06:11:16.130Z,94044.94
2024-03-05T06:13:43.530Z,94053.53
2024-03-05T06:16:10.955Z,94051.81
2024-03-05T06:18:47.615Z,94049.97
2024-03-05T06:21:21.127Z,94054.22
2024-03-05T06:23:48.383Z,94055.97
2024-03-05T06:26:17.786Z,94047.59
2024-03-05T06:28:46.853Z,94054.78
2024-03-05T06:31:14.290Z,94064.34
2024-03-05T06:33:42.260Z,94065.81
2024-03-05T06:36:09.636Z,94069.53
2024-03-05T06:38:37.290Z,94065.69
2024-03-05T06:41:26.535Z,94074.59
2024-03-05T06:44:01.154Z,94069.25
2024-03-05T06:46:31.127Z,94070.66
2024-03-05T06:49:02.063Z,94071.41
2024-03-05T06:51:33.138Z,94065.88
2024-03-05T06:54:20.410Z,94059.25
2024-03-05T06:56:47.797Z,94074.75
2024-03-05T06:59:15.082Z,94082.47
2024-03-05T07:01:42.363Z,94077.16
2024-03-05T07:04:10.621Z,94079.59
2024-03-05T07:06:37.837Z,94082.03
2024-03-05T07:09:05.040Z,94091.44
2024-03-05T07:11:33.079Z,94073.34
2024-03-05T07:14:00.269Z,94104.81
2024-03-05T07:16:27.491Z,94097.03
2024-03-05T07:18:55.017Z,94087.97
2024-03-05T07:21:24.249Z,94085.06
2024-03-05T07:23:52.977Z,94091.44
2024-03-05T07:26:21.007Z,94090.31
2024-03-05T07:28:48.601Z,94093.50
2024-03-05T07:31:17.685Z,94096.47
2024-03-05T07:33:48.668Z,94089.28
2024-03-05T07:36:19.219Z,94096.22
2024-03-05T07:38:47.056Z,94106.13
2024-03-05T07:41:22.787Z,94114.66
2024-03-05T07:43:57.542Z,94106.94
2024-03-05T07:46:24.945Z,94106.09
2024-03-05T07:48:52.208Z,94106.59
2024-03-05T07:51:24.566Z,94082.28
2024-03-05T07:53:57.140Z,94096.97
2024-03-05T07:56:24.803Z,94111.91
2024-03-05T07:58:52.410Z,94099.09
2024-03-05T08:01:19.924Z,94108.75
2024-03-05T08:03:47.106Z,94113.59
2024-03-05T08:06:14.506Z,94118.38
2024-03-05T08:08:42.024Z,94117.53
2024-03-05T08:11:09.497Z,94112.50
2024-03-05T08:13:37.055Z,94113.84
2024-03-05T08:16:05.899Z,94120.50
2024-03-05T08:18:33.630Z,94120.22
2024-03-05T08:21:03.736Z,94107.94
2024-03-05T08:23:30.824Z,94115.56
2024-03-05T08:25:58.254Z,94120.63
2024-03-05T08:28:26.115Z,94113.66
2024-03-05T08:30:54.960Z,94117.94
2024-03-05T08:33:25.222Z,94104.53
2024-03-05T08:35:53.336Z,94112.34
2024-03-05T08:38:20.755Z,94119.00
2024-03-05T08:40:50.156Z,94119.34
2024-03-05T08:43:17.339Z,94127.03
2024-03-05T08:45:44.570Z,94126.19
2024-03-05T08:48:12.042Z,94123.69
2024-03-05T08:50:40.914Z,94128.22
2024-03-05T08:53:09.534Z,94121.69
2024-03-05T08:55:37.232Z,94114.84
2024-03-05T08:58:05.196Z,94124.75
2024-03-05T09:00:41.940Z,94131.69
2024-03-05T09:03:13.556Z,94129.41
2024-03-05T09:05:44.331Z,94133.00
2024-03-05T09:08:14.077Z,94123.91
2024-03-05T09:10:41.425Z,94120.06
2024-03-05T09:13:08.619Z,94129.53
2024-03-05T09:15:41.417Z,94130.78
2024-03-05T09:18:14.135Z,94133.44
2024-03-05T09:20:43.187Z,94122.31
2024-03-05T09:23:10.742Z,94114.38
2024-03-05T09:25:39.965Z,94124.16
2024-03-05T09:28:07.129Z,94119.84
2024-03-05T09:30:35.166Z,94120.91
2024-03-05T09:33:03.757Z,94115.09
2024-03-05T09:35:31.663Z,94112.03
2024-03-05T09:37:59.150Z,94118.72
2024-03-05T09:40:26.514Z,94107.53
2024-03-05T09:42:59.512Z,94102.91
2024-03-05T09:45:31.731Z,94116.53
2024-03-05T09:47:59.610Z,94119.28
2024-03-05T09:50:26.965Z,94067.69
2024-03-05T09:52:54.856Z,94107.22
2024-03-05T09:55:22.293Z,94110.63
2024-03-05T09:57:50.459Z,94114.09
2024-03-05T10:00:21.797Z,94102.94
2024-03-05T10:02:53.162Z,94111.72
2024-03-05T10:05:21.645Z,94114.28
2024-03-05T10:07:50.395Z,94120.59
2024-03-05T10:10:23.228Z,94114.44
2024-03-05T10:12:53.953Z,94121.75
2024-03-05T10:15:26.304Z,94120.25
2024-03-05T10:17:55.871Z,94120.34
2024-03-05T10:20:33.295Z,94119.28
2024-03-05T10:23:06.387Z,94116.31
2024-03-05T10:25:36.946Z,94125.09
2024-03-05T10:28:05.706Z,94120.63
2024-03-05T10:30:35.553Z,94116.22
2024-03-05T10:33:06.116Z,94117.91
2024-03-05T10:35:34.258Z,94124.22
2024-03-05T10:38:11.020Z,94124.06
2024-03-05T10:40:41.120Z,94120.47
2024-03-05T10:43:10.429Z,94122.25
2024-03-05T10:45:42.858Z,94120.03
2024-03-05T10:48:12.202Z,94110.25
2024-03-05T10:50:41.888Z,94123.72
2024-03-05T10:53:10.253Z,94112.03
2024-03-05T10:55:39.337Z,94115.63
2024-03-05T10:58:19.958Z,94111.78
2024-03-05T11:00:48.374Z,94106.75
2024-03-05T11:03:18.428Z,94118.44
2024-03-05T11:05:54.266Z,94115.81
2024-03-05T11:08:25.653Z,94117.59
2024-03-05T11:11:08.118Z,94115.59
2024-03-05T11:13:40.391Z,94127.34
2024-03-05T11:16:09.633Z,94124.97
2024-03-05T11:18:39.062Z,94133.00
2024-03-05T11:21:16.630Z,94130.31
2024-03-05T11:23:51.399Z,94132.59
2024-03-05T11:26:21.273Z,94120.84
2024-03-05T11:28:49.368Z,94124.03
2024-03-05T11:31:20.483Z,94117.69
2024-03-05T11:34:12.409Z,94129.47
2024-03-05T11:36:40.632Z,94126.16
2024-03-05T11:39:19.241Z,94126.75
2024-03-05T11:41:49.104Z,94119.06
2024-03-05T11:44:42.579Z,94133.00
2024-03-05T11:47:10.274Z,94124.81
2024-03-05T11:49:38.466Z,94124.06
2024-03-05T11:52:06.352Z,94121.66
2024-03-05T11:54:33.677Z,94122.88
2024-03-05T11:57:01.942Z,94132.13
2024-03-05T11:59:37.591Z,94128.09
2024-03-05T12:02:18.235Z,94131.13
2024-03-05T12:04:48.709Z,94134.59
2024-03-05T12:07:16.811Z,94133.81
2024-03-05T12:09:45.417Z,94138.41
2024-03-05T12:12:15.296Z,94137.88
2024-03-05T12:14:52.086Z,94138.94
2024-03-05T12:17:21.169Z,94136.38
2024-03-05T12:20:10.761Z,94131.66
2024-03-05T12:22:39.783Z,94141.41
2024-03-05T12:25:09.462Z,94137.56
2024-03-05T12:27:38.758Z,94134.59
2024-03-05T12:30:08.462Z,94142.94
2024-03-05T12:32:38.346Z,94139.50
2024-03-05T12:35:07.127Z,94141.63
2024-03-05T12:37:37.120Z,94139.94
2024-03-05T12:40:09.094Z,94138.97
2024-03-05T12:42:36.684Z,94147.47
2024-03-05T12:45:09.771Z,94141.47
2024-03-05T12:47:38.759Z,94140.16
2024-03-05T12:50:08.824Z,94146.88
2024-03-05T12:52:36.925Z,94144.13
2024-03-05T12:55:11.376Z,94147.34
2024-03-05T12:57:39.255Z,94140.06
2024-03-05T13:00:14.249Z,94148.97
2024-03-05T13:02:42.870Z,94122.72
2024-03-05T13:05:10.197Z,94157.81
2024-03-05T13:07:37.918Z,94167.53
2024-03-05T13:10:11.715Z,94166.66
2024-03-05T13:12:40.269Z,94161.38
2024-03-05T13:15:08.038Z,94167.00
2024-03-05T13:17:35.369Z,94176.88
2024-03-05T13:20:04.328Z,94184.78
2024-03-05T13:22:32.406Z,94176.59
2024-03-05T13:24:59.588Z,94189.56
2024-03-05T13:27:27.574Z,94181.44
2024-03-05T13:30:05.593Z,94192.34
2024-03-05T13:32:39.959Z,94184.50
2024-03-05T13:35:09.367Z,94204.47
2024-03-05T13:37:37.238Z,94203.13
2024-03-05T13:40:05.399Z,94209.09
2024-03-05T13:42:37.044Z,94194.69
2024-03-05T13:45:11.250Z,94216.06
2024-03-05T13:47:39.989Z,94209.63
2024-03-05T13:50:11.557Z,94225.06
2024-03-05T13:52:45.961Z,94225.31
2024-03-05T13:55:15.008Z,94224.88
2024-03-05T13:57:42.846Z,94241.47
2024-03-05T14:00:15.269Z,94238.25
2024-03-05T14:02:42.586Z,94254.03
2024-03-05T14:05:12.308Z,94260.69
2024-03-05T14:07:40.167Z,94258.81
2024-03-05T14:10:11.347Z,94253.75
2024-03-05T14:12:42.642Z,94248.41
2024-03-05T14:15:21.749Z,94270.06
2024-03-05T14:17:50.159Z,94262.03
2024-03-05T14:20:21.365Z,94280.16
2024-03-05T14:22:48.739Z,94276.19
2024-03-05T14:25:18.408Z,94274.88
2024-03-05T14:27:48.778Z,94245.69
2024-03-05T14:30:19.575Z,94296.13
2024-03-05T14:32:47.746Z,94297.25
2024-03-05T14:35:15.210Z,94297.22
2024-03-05T14:37:43.899Z,94292.59
2024-03-05T14:40:12.188Z,94295.75
2024-03-05T14:42:39.511Z,94304.25
2024-03-05T14:45:07.667Z,94305.34
2024-03-05T14:47:35.071Z,94307.25
2024-03-05T14:50:02.558Z,94310.44
2024-03-05T14:52:31.357Z,94319.59
2024-03-05T14:54:58.560Z,94320.66
2024-03-05T14:57:27.803Z,94320.13
2024-03-05T14:59:55.040Z,94309.41
2024-03-05T15:02:22.444Z,94326.44
2024-03-05T15:04:49.834Z,94328.09
2024-03-05T15:07:17.232Z,94336.41
2024-03-05T15:09:44.371Z,94339.56
2024-03-05T15:12:11.734Z,94339.25
2024-03-05T15:14:43.492Z,94341.16
2024-03-05T15:17:11.995Z,94262.34
2024-03-05T15:19:39.245Z,94347.63
2024-03-05T15:22:07.631Z,94355.78
2024-03-05T15:24:34.890Z,94358.34
2024-03-05T15:27:05.956Z,94352.38
2024-03-05T15:29:33.867Z,94364.03
2024-03-05T15:32:02.425Z,94365.22
2024-03-05T15:34:30.375Z,94368.94
2024-03-05T15:36:57.759Z,94373.63
2024-03-05T15:39:25.229Z,94374.72
2024-03-05T15:41:52.630Z,94377.09
2024-03-05T15:44:19.830Z,94375.97
2024-03-05T15:46:48.716Z,94387.13
2024-03-05T15:49:16.182Z,94390.06
2024-03-05T15:51:44.052Z,94380.44
2024-03-05T15:54:11.662Z,94388.31
2024-03-05T15:56:58.753Z,94398.75
2024-03-05T15:59:44.707Z,94401.78
2024-03-05T16:02:12.185Z,94411.44
2024-03-05T16:04:57.638Z,94415.66
2024-03-05T16:07:27.689Z,94410.13
2024-03-05T16:09:55.065Z,94421.34
2024-03-05T16:12:25.421Z,94416.09
2024-03-05T16:14:53.807Z,94420.22
2024-03-05T16:17:22.068Z,94424.38
2024-03-05T16:19:49.248Z,94429.97
2024-03-05T16:22:16.482Z,94435.28
2024-03-05T16:24:44.567Z,94426.69
2024-03-05T16:27:11.686Z,94437.75
2024-03-05T16:29:38.812Z,94444.41
2024-03-05T16:32:06.431Z,94446.84
2024-03-05T16:34:33.581Z,94449.28
2024-03-05T16:37:00.745Z,94450.56
2024-03-05T16:39:27.825Z,94454.53
2024-03-05T16:41:55.001Z,94462.28
2024-03-05T16:44:23.716Z,94466.63
2024-03-05T16:46:51.661Z,94465.22
2024-03-05T16:49:19.165Z,94477.47
2024-03-05T16:51:46.480Z,94474.38
2024-03-05T16:54:15.621Z,94461.41
2024-03-05T16:56:45.281Z,94481.59
2024-03-05T16:59:13.951Z,94486.84
2024-03-05T17:01:41.245Z,94485.06
2024-03-05T17:04:14.537Z,94482.84
2024-03-05T17:06:44.422Z,94492.88
2024-03-05T17:09:12.625Z,94489.50
2024-03-05T17:11:39.965Z,94499.72
2024-03-05T17:14:08.343Z,94502.69
2024-03-05T17:16:41.559Z,94506.97
2024-03-05T17:19:11.412Z,94506.47
2024-03-05T17:21:38.816Z,94506.47
2024-03-05T17:24:06.422Z,94516.38
2024-03-05T17:26:33.698Z,94507.66
2024-03-05T17:29:06.654Z,94525.69
2024-03-05T17:31:34.949Z,94512.03
2024-03-05T17:34:02.535Z,94519.28
2024-03-05T17:36:30.874Z,94528.19
2024-03-05T17:38:58.195Z,94524.72
2024-03-05T17:41:25.413Z,94531.31
2024-03-05T17:43:53.027Z,94520.41
2024-03-05T17:46:20.989Z,94540.00
2024-03-05T17:48:48.312Z,94526.50
2024-03-05T17:51:15.556Z,94538.94
2024-03-05T17:53:44.058Z,94531.13
2024-03-05T17:56:13.511Z,94544.41
2024-03-05T17:58:41.403Z,94546.47
2024-03-05T18:01:12.912Z,94538.97
2024-03-05T18:03:40.400Z,94547.59
2024-03-05T18:06:07.859Z,94551.41
2024-03-05T18:08:35.029Z,94555.94
2024-03-05T18:11:02.501Z,94548.31
2024-03-05T18:13:29.760Z,94539.63
2024-03-05T18:15:57.437Z,94552.31
2024-03-05T18:18:24.935Z,94550.69
2024-03-05T18:20:52.101Z,94545.50
2024-03-05T18:23:19.611Z,94552.72
2024-03-05T18:25:49.687Z,94562.53
2024-03-05T18:28:21.817Z,94557.38
2024-03-05T18:30:50.005Z,94531.94
2024-03-05T18:33:18.290Z,94562.69
2024-03-05T18:35:46.721Z,94566.97
2024-03-05T18:38:24.017Z,94565.66
2024-03-05T18:41:01.276Z,94564.25
2024-03-05T18:43:30.242Z,94578.38
2024-03-05T18:46:00.672Z,94568.03
2024-03-05T18:48:28.835Z,94567.56
2024-03-05T18:50:57.706Z,94579.78
2024-03-05T18:53:32.651Z,94568.25
2024-03-05T18:56:07.819Z,94577.56
2024-03-05T18:58:35.389Z,94576.34
2024-03-05T19:01:04.371Z,94586.03
2024-03-05T19:03:31.938Z,94578.09
2024-03-05T19:05:59.333Z,94599.69
2024-03-05T19:08:26.551Z,94589.75
2024-03-05T19:10:54.526Z,94609.03
2024-03-05T19:13:21.820Z,94601.72
2024-03-05T19:15:49.270Z,94611.44
2024-03-05T19:18:16.485Z,94622.75
2024-03-05T19:20:43.674Z,94611.31
2024-03-05T19:23:10.868Z,94596.88
2024-03-05T19:25:38.064Z,94624.38
2024-03-05T19:28:05.888Z,94612.81
2024-03-05T19:30:33.114Z,94628.16
2024-03-05T19:33:00.811Z,94633.22
2024-03-05T19:35:28.054Z,94636.09
2024-03-05T19:37:57.534Z,94627.47
2024-03-05T19:40:26.824Z,94626.66
2024-03-05T19:42:58.236Z,94631.38
2024-03-05T19:45:27.827Z,94632.19
2024-03-05T19:47:55.393Z,94631.88
2024-03-05T19:50:24.506Z,94620.66
2024-03-05T19:52:55.609Z,94628.72
2024-03-05T19:55:23.741Z,94632.28
2024-03-05T19:57:51.398Z,94639.09
2024-03-05T20:00:25.110Z,94639.31
2024-03-05T20:02:54.291Z,94633.22
2024-03-05T20:05:23.203Z,94631.94
2024-03-05T20:07:53.076Z,94629.75
2024-03-05T20:10:23.042Z,94637.94
2024-03-05T20:12:50.706Z,94643.25
2024-03-05T20:15:17.967Z,94629.72
2024-03-05T20:17:45.373Z,94631.22
2024-03-05T20:20:18.365Z,94614.16
2024-03-05T20:22:48.056Z,94645.72
2024-03-05T20:25:19.297Z,94639.84
2024-03-05T20:27:51.390Z,94646.91
2024-03-05T20:30:19.473Z,94632.69
2024-03-05T20:32:47.429Z,94652.47
2024-03-05T20:35:24.172Z,94646.66
2024-03-05T20:37:52.577Z,94653.81
2024-03-05T20:40:21.318Z,94659.31
2024-03-05T20:42:49.047Z,94654.69
2024-03-05T20:45:17.345Z,94653.63
2024-03-05T20:47:44.842Z,94651.84
2024-03-05T20:50:12.736Z,94657.88
2024-03-05T20:52:40.299Z,94646.81
2024-03-05T20:55:10.017Z,94659.09
2024-03-05T20:57:39.074Z,94650.06
2024-03-05T21:00:13.606Z,94652.03
2024-03-05T21:02:42.311Z,94646.28
2024-03-05T21:05:11.476Z,94651.66
2024-03-05T21:07:39.565Z,94659.63
2024-03-05T21:10:11.201Z,94663.13
2024-03-05T21:12:40.291Z,94659.09
2024-03-05T21:15:12.327Z,94665.63
2024-03-05T21:17:41.402Z,94659.03
2024-03-05T21:20:13.378Z,94670.66
2024-03-05T21:22:43.646Z,94661.44
2024-03-05T21:25:11.791Z,94663.94
2024-03-05T21:27:40.873Z,94669.03
2024-03-05T21:30:09.859Z,94664.28
2024-03-05T21:32:37.456Z,94669.03
2024-03-05T21:35:07.103Z,94665.09
2024-03-05T21:37:36.480Z,94675.28
2024-03-05T21:40:06.364Z,94670.38
2024-03-05T21:42:34.171Z,94683.63
2024-03-05T21:45:02.046Z,94675.75
2024-03-05T21:47:32.187Z,94685.78
2024-03-05T21:50:00.984Z,94691.03
2024-03-05T21:52:31.751Z,94677.63
2024-03-05T21:54:58.948Z,94676.22
2024-03-05T21:57:26.060Z,94679.88
2024-03-05T21:59:53.326Z,94678.78
2024-03-05T22:02:20.518Z,94676.41
2024-03-05T22:04:47.891Z,94677.88
2024-03-05T22:07:14.980Z,94645.63
2024-03-05T22:09:42.155Z,94676.69
2024-03-05T22:12:09.504Z,94671.28
2024-03-05T22:14:36.737Z,94673.38
2024-03-05T22:17:09.114Z,94679.03
2024-03-05T22:19:37.699Z,94687.22
2024-03-05T22:22:04.919Z,94693.66
2024-03-05T22:24:33.023Z,94683.63
2024-03-05T22:27:00.142Z,94699.22
2024-03-05T22:29:27.755Z,94699.09
2024-03-05T22:31:55.588Z,94681.88
2024-03-05T22:34:22.917Z,94682.13
2024-03-05T22:36:50.156Z,94694.59
2024-03-05T22:39:18.055Z,94696.88
2024-03-05T22:41:45.447Z,94700.09
2024-03-05T22:44:12.903Z,94702.78
2024-03-05T22:46:40.310Z,94702.94
2024-03-05T22:49:07.425Z,94703.72
2024-03-05T22:51:35.965Z,94705.72
2024-03-05T22:54:03.669Z,94709.91
2024-03-05T22:56:31.134Z,94712.03
2024-03-05T22:58:59.611Z,94708.06
2024-03-05T23:01:27.475Z,94699.63
2024-03-05T23:03:54.866Z,94701.16
2024-03-05T23:06:25.505Z,94709.28
2024-03-05T23:08:55.116Z,94711.47
2024-03-05T23:11:22.495Z,94709.66
2024-03-05T23:13:49.847Z,94711.78
2024-03-05T23:16:17.282Z,94708.47
2024-03-05T23:18:44.583Z,94714.59
2024-03-05T23:21:12.802Z,94717.75
2024-03-05T23:23:43.697Z,94727.81
2024-03-05T23:26:11.401Z,94727.69
2024-03-05T23:28:40.155Z,94737.19
2024-03-05T23:31:07.912Z,94738.78
2024-03-05T23:33:36.094Z,94733.50
2024-03-05T23:36:03.764Z,94732.53
2024-03-05T23:38:32.386Z,94732.84
2024-03-05T23:41:00.698Z,94731.16
2024-03-05T23:43:27.961Z,94735.75
2024-03-05T23:45:57.957Z,94741.09
2024-03-05T23:48:25.201Z,94746.13
2024-03-05T23:50:52.267Z,94752.97
2024-03-05T23:53:19.656Z,94741.34
2024-03-05T23:55:46.991Z,94753.47
2024-03-05T23:58:14.133Z,94730.22
